sensor_id;sensor_type;location;lat;lon;timestamp;pressure;altitude;pressure_sealevel;temperature;humidity
11001;BME280;5553;48.506;8.870;2022-11-11T00:01:33;98123.78;;;1.29;100.00
11001;BME280;5553;48.506;8.870;2022-11-11T00:04:01;98130.22;;;1.37;100.00
11001;BME280;5553;48.506;8.870;2022-11-11T00:06:32;98132.22;;;1.47;100.00
11001;BME280;5553;48.506;8.870;2022-11-11T00:09:01;98136.25;;;1.38;100.00
11001;BME280;5553;48.506;8.870;2022-11-11T00:11:29;98139.13;;;1.48;100.00
11001;BME280;5553;48.506;8.870;2022-11-11T00:13:57;98133.81;;;1.49;100.00
11001;BME280;5553;48.506;8.870;2022-11-11T00:16:26;98123.13;;;1.39;100.00
11001;BME280;5553;48.506;8.870;2022-11-11T00:19:14;98134.09;;;1.45;100.00
11001;BME280;5553;48.506;8.870;2022-11-11T00:21:58;98139.00;;;1.49;100.00
11001;BME280;5553;48.506;8.870;2022-11-11T00:24:39;98139.94;;;1.48;100.00
11001;BME280;5553;48.506;8.870;2022-11-11T00:27:19;98143.22;;;1.37;100.00
11001;BME280;5553;48.506;8.870;2022-11-11T00:29:48;98140.06;;;1.18;100.00
11001;BME280;5553;48.506;8.870;2022-11-11T00:32:16;98139.88;;;1.21;100.00
11001;BME280;5553;48.506;8.870;2022-11-11T00:34:52;98143.41;;;1.20;100.00
11001;BME280;5553;48.506;8.870;2022-11-11T00:37:37;98160.13;;;1.30;100.00
11001;BME280;5553;48.506;8.870;2022-11-11T00:40:07;98152.69;;;1.10;100.00
11001;BME280;5553;48.506;8.870;2022-11-11T00:42:36;98167.34;;;1.11;100.00
11001;BME280;5553;48.506;8.870;2022-11-11T00:45:05;98160.03;;;1.17;100.00
11001;BME280;5553;48.506;8.870;2022-11-11T00:47:34;98162.63;;;1.03;100.00
11001;BME280;5553;48.506;8.870;2022-11-11T00:50:16;98164.75;;;0.97;100.00
11001;BME280;5553;48.506;8.870;2022-11-11T00:53:01;98165.75;;;0.94;100.00
11001;BME280;5553;48.506;8.870;2022-11-11T00:55:29;98171.97;;;1.06;100.00
11001;BME280;5553;48.506;8.870;2022-11-11T00:57:57;98166.31;;;0.99;100.00
11001;BME280;5553;48.506;8.870;2022-11-11T01:00:26;98171.66;;;0.82;100.00
11001;BME280;5553;48.506;8.870;2022-11-11T01:02:54;98179.28;;;0.85;100.00
11001;BME280;5553;48.506;8.870;2022-11-11T01:05:24;98184.31;;;0.88;100.00
11001;BME280;5553;48.506;8.870;2022-11-11T01:07:53;98196.59;;;0.86;100.00
11001;BME280;5553;48.506;8.870;2022-11-11T01:10:24;98190.31;;;0.74;100.00
11001;BME280;5553;48.506;8.870;2022-11-11T01:13:13;98176.47;;;0.59;100.00
11001;BME280;5553;48.506;8.870;2022-11-11T01:15:44;98181.56;;;0.61;100.00
11001;BME280;5553;48.506;8.870;2022-11-11T01:18:14;98176.72;;;0.55;100.00
11001;BME280;5553;48.506;8.870;2022-11-11T01:20:43;98187.31;;;0.52;100.00
11001;BME280;5553;48.506;8.870;2022-11-11T01:23:13;98177.06;;;0.34;100.00
11001;BME280;5553;48.506;8.870;2022-11-11T01:25:44;98180.00;;;0.58;100.00
11001;BME280;5553;48.506;8.870;2022-11-11T01:28:13;98177.66;;;0.54;100.00
11001;BME280;5553;48.506;8.870;2022-11-11T01:30:42;98191.53;;;0.68;100.00
11001;BME280;5553;48.506;8.870;2022-11-11T01:33:11;98192.91;;;0.74;100.00
11001;BME280;5553;48.506;8.870;2022-11-11T01:35:40;98192.75;;;0.77;100.00
11001;BME280;5553;48.506;8.870;2022-11-11T01:38:09;98194.19;;;0.67;100.00
11001;BME280;5553;48.506;8.870;2022-11-11T01:40:44;98204.78;;;0.64;100.00
11001;BME280;5553;48.506;8.870;2022-11-11T01:43:19;98209.97;;;0.64;100.00
11001;BME280;5553;48.506;8.870;2022-11-11T01:45:54;98203.56;;;0.39;100.00
11001;BME280;5553;48.506;8.870;2022-11-11T01:48:28;98205.59;;;0.34;100.00
11001;BME280;5553;48.506;8.870;2022-11-11T01:51:15;98196.41;;;0.29;100.00
11001;BME280;5553;48.506;8.870;2022-11-11T01:54:00;98196.97;;;0.34;100.00
11001;BME280;5553;48.506;8.870;2022-11-11T01:56:32;98190.13;;;0.17;100.00
11001;BME280;5553;48.506;8.870;2022-11-11T01:59:04;98186.03;;;0.13;100.00
11001;BME280;5553;48.506;8.870;2022-11-11T02:01:34;98193.69;;;0.46;100.00
11001;BME280;5553;48.506;8.870;2022-11-11T02:04:04;98197.31;;;0.58;100.00
11001;BME280;5553;48.506;8.870;2022-11-11T02:06:47;98208.59;;;0.73;100.00
11001;BME280;5553;48.506;8.870;2022-11-11T02:09:19;98204.72;;;0.50;100.00
11001;BME280;5553;48.506;8.870;2022-11-11T02:11:53;98199.91;;;0.58;100.00
11001;BME280;5553;48.506;8.870;2022-11-11T02:14:39;98199.03;;;0.43;100.00
11001;BME280;5553;48.506;8.870;2022-11-11T02:17:11;98193.47;;;0.35;100.00
11001;BME280;5553;48.506;8.870;2022-11-11T02:19:47;98184.63;;;0.37;100.00
11001;BME280;5553;48.506;8.870;2022-11-11T02:22:23;98178.75;;;0.50;100.00
11001;BME280;5553;48.506;8.870;2022-11-11T02:24:59;98174.06;;;0.40;100.00
11001;BME280;5553;48.506;8.870;2022-11-11T02:27:29;98180.59;;;0.47;100.00
11001;BME280;5553;48.506;8.870;2022-11-11T02:29:59;98182.13;;;0.52;100.00
11001;BME280;5553;48.506;8.870;2022-11-11T02:32:29;98188.22;;;0.51;100.00
11001;BME280;5553;48.506;8.870;2022-11-11T02:34:57;98187.88;;;0.57;100.00
11001;BME280;5553;48.506;8.870;2022-11-11T02:37:26;98186.34;;;0.38;100.00
11001;BME280;5553;48.506;8.870;2022-11-11T02:40:01;98196.00;;;0.51;100.00
11001;BME280;5553;48.506;8.870;2022-11-11T02:42:33;98198.56;;;0.36;100.00
11001;BME280;5553;48.506;8.870;2022-11-11T02:45:02;98204.19;;;0.29;100.00
11001;BME280;5553;48.506;8.870;2022-11-11T02:47:31;98200.75;;;0.28;100.00
11001;BME280;5553;48.506;8.870;2022-11-11T02:49:59;98200.44;;;0.18;100.00
11001;BME280;5553;48.506;8.870;2022-11-11T02:52:28;98202.59;;;0.26;100.00
11001;BME280;5553;48.506;8.870;2022-11-11T02:54:56;98200.59;;;0.31;100.00
11001;BME280;5553;48.506;8.870;2022-11-11T02:57:27;98205.25;;;0.40;100.00
11001;BME280;5553;48.506;8.870;2022-11-11T02:59:58;98203.41;;;0.27;100.00
11001;BME280;5553;48.506;8.870;2022-11-11T03:02:27;98209.09;;;0.33;100.00
11001;BME280;5553;48.506;8.870;2022-11-11T03:04:56;98218.28;;;0.55;100.00
11001;BME280;5553;48.506;8.870;2022-11-11T03:07:25;98220.81;;;0.40;100.00
11001;BME280;5553;48.506;8.870;2022-11-11T03:09:53;98219.84;;;0.27;100.00
11001;BME280;5553;48.506;8.870;2022-11-11T03:12:22;98224.44;;;0.38;100.00
11001;BME280;5553;48.506;8.870;2022-11-11T03:14:52;98227.22;;;0.35;100.00
11001;BME280;5553;48.506;8.870;2022-11-11T03:17:21;98226.56;;;0.31;100.00
11001;BME280;5553;48.506;8.870;2022-11-11T03:20:03;98210.31;;;0.12;100.00
11001;BME280;5553;48.506;8.870;2022-11-11T03:22:46;98207.31;;;0.04;100.00
11001;BME280;5553;48.506;8.870;2022-11-11T03:25:25;98208.81;;;-0.08;100.00
11001;BME280;5553;48.506;8.870;2022-11-11T03:28:07;98202.03;;;-0.11;100.00
11001;BME280;5553;48.506;8.870;2022-11-11T03:30:39;98212.50;;;0.04;100.00
11001;BME280;5553;48.506;8.870;2022-11-11T03:33:08;98212.00;;;-0.03;100.00
11001;BME280;5553;48.506;8.870;2022-11-11T03:35:37;98210.69;;;-0.10;100.00
11001;BME280;5553;48.506;8.870;2022-11-11T03:38:09;98210.25;;;-0.03;100.00
11001;BME280;5553;48.506;8.870;2022-11-11T03:40:49;98218.34;;;0.23;100.00
11001;BME280;5553;48.506;8.870;2022-11-11T03:43:19;98212.31;;;0.22;100.00
11001;BME280;5553;48.506;8.870;2022-11-11T03:45:51;98206.13;;;0.09;100.00
11001;BME280;5553;48.506;8.870;2022-11-11T03:48:20;98199.94;;;-0.04;100.00
11001;BME280;5553;48.506;8.870;2022-11-11T03:50:49;98203.03;;;0.03;100.00
11001;BME280;5553;48.506;8.870;2022-11-11T03:53:18;98203.09;;;0.17;100.00
11001;BME280;5553;48.506;8.870;2022-11-11T03:55:48;98194.31;;;0.19;100.00
11001;BME280;5553;48.506;8.870;2022-11-11T03:58:17;98202.09;;;0.35;100.00
11001;BME280;5553;48.506;8.870;2022-11-11T04:00:46;98200.22;;;0.37;100.00
11001;BME280;5553;48.506;8.870;2022-11-11T04:03:18;98203.31;;;0.44;100.00
11001;BME280;5553;48.506;8.870;2022-11-11T04:05:59;98199.38;;;0.37;100.00
11001;BME280;5553;48.506;8.870;2022-11-11T04:08:43;98208.44;;;0.30;100.00
11001;BME280;5553;48.506;8.870;2022-11-11T04:11:27;98197.22;;;0.29;100.00
11001;BME280;5553;48.506;8.870;2022-11-11T04:13:59;98198.50;;;0.22;100.00
11001;BME280;5553;48.506;8.870;2022-11-11T04:16:41;98192.31;;;0.25;100.00
11001;BME280;5553;48.506;8.870;2022-11-11T04:19:12;98185.69;;;0.19;100.00
11001;BME280;5553;48.506;8.870;2022-11-11T04:21:53;98192.72;;;0.17;100.00
11001;BME280;5553;48.506;8.870;2022-11-11T04:24:21;98202.75;;;0.23;100.00
11001;BME280;5553;48.506;8.870;2022-11-11T04:27:04;98207.94;;;0.23;100.00
11001;BME280;5553;48.506;8.870;2022-11-11T04:29:33;98221.88;;;0.22;100.00
11001;BME280;5553;48.506;8.870;2022-11-11T04:32:00;98227.81;;;0.24;100.00
11001;BME280;5553;48.506;8.870;2022-11-11T04:34:52;98237.34;;;0.23;100.00
11001;BME280;5553;48.506;8.870;2022-11-11T04:37:21;98240.69;;;0.26;100.00
11001;BME280;5553;48.506;8.870;2022-11-11T04:39:50;98251.31;;;0.37;100.00
11001;BME280;5553;48.506;8.870;2022-11-11T04:42:32;98248.16;;;0.32;100.00
11001;BME280;5553;48.506;8.870;2022-11-11T04:45:02;98240.53;;;0.29;100.00
11001;BME280;5553;48.506;8.870;2022-11-11T04:47:53;98240.63;;;0.11;100.00
11001;BME280;5553;48.506;8.870;2022-11-11T04:50:26;98244.88;;;-0.04;100.00
11001;BME280;5553;48.506;8.870;2022-11-11T04:52:55;98250.69;;;0.02;100.00
11001;BME280;5553;48.506;8.870;2022-11-11T04:55:24;98248.81;;;-0.12;100.00
11001;BME280;5553;48.506;8.870;2022-11-11T04:58:05;98245.97;;;-0.23;100.00
11001;BME280;5553;48.506;8.870;2022-11-11T05:00:33;98250.09;;;-0.19;100.00
11001;BME280;5553;48.506;8.870;2022-11-11T05:03:02;98246.97;;;-0.26;100.00
11001;BME280;5553;48.506;8.870;2022-11-11T05:05:44;98265.47;;;-0.32;100.00
11001;BME280;5553;48.506;8.870;2022-11-11T05:08:25;98259.50;;;-0.34;100.00
11001;BME280;5553;48.506;8.870;2022-11-11T05:11:06;98258.75;;;-0.36;100.00
11001;BME280;5553;48.506;8.870;2022-11-11T05:13:35;98259.03;;;-0.25;100.00
11001;BME280;5553;48.506;8.870;2022-11-11T05:16:18;98277.13;;;-0.23;100.00
11001;BME280;5553;48.506;8.870;2022-11-11T05:18:59;98281.13;;;-0.18;100.00
11001;BME280;5553;48.506;8.870;2022-11-11T05:21:55;98285.72;;;-0.23;100.00
11001;BME280;5553;48.506;8.870;2022-11-11T05:24:24;98296.38;;;-0.12;100.00
11001;BME280;5553;48.506;8.870;2022-11-11T05:27:05;98293.78;;;-0.12;100.00
11001;BME280;5553;48.506;8.870;2022-11-11T05:29:34;98292.69;;;-0.23;100.00
11001;BME280;5553;48.506;8.870;2022-11-11T05:32:03;98304.47;;;-0.18;100.00
11001;BME280;5553;48.506;8.870;2022-11-11T05:34:31;98313.44;;;-0.08;100.00
11001;BME280;5553;48.506;8.870;2022-11-11T05:37:02;98308.94;;;-0.20;100.00
11001;BME280;5553;48.506;8.870;2022-11-11T05:39:31;98322.31;;;-0.12;100.00
11001;BME280;5553;48.506;8.870;2022-11-11T05:41:59;98318.78;;;-0.11;100.00
11001;BME280;5553;48.506;8.870;2022-11-11T05:44:27;98327.81;;;-0.18;100.00
11001;BME280;5553;48.506;8.870;2022-11-11T05:46:56;98329.03;;;-0.08;100.00
11001;BME280;5553;48.506;8.870;2022-11-11T05:49:24;98344.13;;;0.02;100.00
11001;BME280;5553;48.506;8.870;2022-11-11T05:51:53;98354.06;;;-0.07;100.00
11001;BME280;5553;48.506;8.870;2022-11-11T05:54:24;98369.91;;;0.05;100.00
11001;BME280;5553;48.506;8.870;2022-11-11T05:56:53;98365.81;;;0.01;100.00
11001;BME280;5553;48.506;8.870;2022-11-11T05:59:21;98360.47;;;0.04;100.00
11001;BME280;5553;48.506;8.870;2022-11-11T06:01:49;98364.75;;;-0.13;100.00
11001;BME280;5553;48.506;8.870;2022-11-11T06:04:18;98372.28;;;-0.08;100.00
11001;BME280;5553;48.506;8.870;2022-11-11T06:06:46;98372.94;;;-0.20;100.00
11001;BME280;5553;48.506;8.870;2022-11-11T06:09:14;98374.69;;;-0.21;100.00
11001;BME280;5553;48.506;8.870;2022-11-11T06:11:46;98370.13;;;-0.33;100.00
11001;BME280;5553;48.506;8.870;2022-11-11T06:14:14;98369.59;;;-0.22;100.00
11001;BME280;5553;48.506;8.870;2022-11-11T06:16:42;98366.16;;;-0.23;100.00
11001;BME280;5553;48.506;8.870;2022-11-11T06:19:11;98369.19;;;-0.15;100.00
11001;BME280;5553;48.506;8.870;2022-11-11T06:21:39;98367.16;;;-0.26;100.00
11001;BME280;5553;48.506;8.870;2022-11-11T06:24:20;98367.00;;;-0.22;100.00
11001;BME280;5553;48.506;8.870;2022-11-11T06:26:51;98357.44;;;-0.22;100.00
11001;BME280;5553;48.506;8.870;2022-11-11T06:29:19;98359.13;;;-0.21;100.00
11001;BME280;5553;48.506;8.870;2022-11-11T06:31:47;98368.09;;;-0.11;100.00
11001;BME280;5553;48.506;8.870;2022-11-11T06:34:16;98377.94;;;0.00;100.00
11001;BME280;5553;48.506;8.870;2022-11-11T06:36:44;98386.22;;;0.07;100.00
11001;BME280;5553;48.506;8.870;2022-11-11T06:39:12;98380.13;;;0.08;100.00
11001;BME280;5553;48.506;8.870;2022-11-11T06:41:41;98388.19;;;0.19;100.00
11001;BME280;5553;48.506;8.870;2022-11-11T06:44:12;98391.94;;;0.13;100.00
11001;BME280;5553;48.506;8.870;2022-11-11T06:46:40;98392.53;;;0.18;100.00
11001;BME280;5553;48.506;8.870;2022-11-11T06:49:08;98397.56;;;0.21;100.00
11001;BME280;5553;48.506;8.870;2022-11-11T06:51:37;98404.94;;;0.29;100.00
11001;BME280;5553;48.506;8.870;2022-11-11T06:54:05;98406.81;;;0.43;100.00
11001;BME280;5553;48.506;8.870;2022-11-11T06:56:33;98409.50;;;0.57;100.00
11001;BME280;5553;48.506;8.870;2022-11-11T06:59:02;98408.94;;;0.52;100.00
11001;BME280;5553;48.506;8.870;2022-11-11T07:01:33;98407.91;;;0.55;100.00
11001;BME280;5553;48.506;8.870;2022-11-11T07:04:01;98443.34;;;3.08;100.00
11001;BME280;5553;48.506;8.870;2022-11-11T07:06:30;98417.22;;;0.75;100.00
11001;BME280;5553;48.506;8.870;2022-11-11T07:08:58;98418.13;;;0.58;100.00
11001;BME280;5553;48.506;8.870;2022-11-11T07:11:26;98509.44;;;4.79;100.00
11001;BME280;5553;48.506;8.870;2022-11-11T07:13:55;98561.88;;;7.59;100.00
11001;BME280;5553;48.506;8.870;2022-11-11T07:16:23;98559.75;;;9.42;100.00
11001;BME280;5553;48.506;8.870;2022-11-11T07:18:54;98348.38;;;4.14;100.00
11001;BME280;5553;48.506;8.870;2022-11-11T07:21:23;98278.81;;;2.03;100.00
11001;BME280;5553;48.506;8.870;2022-11-11T07:23:51;98267.03;;;1.69;100.00
11001;BME280;5553;48.506;8.870;2022-11-11T07:26:19;98249.94;;;1.50;100.00
11001;BME280;5553;48.506;8.870;2022-11-11T07:28:48;98252.69;;;1.33;100.00
11001;BME280;5553;48.506;8.870;2022-11-11T07:31:17;98248.53;;;1.30;100.00
11001;BME280;5553;48.506;8.870;2022-11-11T07:33:45;98234.06;;;1.40;100.00
11001;BME280;5553;48.506;8.870;2022-11-11T07:36:16;98240.28;;;1.38;100.00
11001;BME280;5553;48.506;8.870;2022-11-11T07:38:45;98252.63;;;1.49;100.00
11001;BME280;5553;48.506;8.870;2022-11-11T07:41:13;98257.28;;;1.58;100.00
11001;BME280;5553;48.506;8.870;2022-11-11T07:43:41;98258.31;;;1.70;100.00
11001;BME280;5553;48.506;8.870;2022-11-11T07:46:10;98263.41;;;1.85;100.00
11001;BME280;5553;48.506;8.870;2022-11-11T07:48:38;98268.88;;;1.95;100.00
11001;BME280;5553;48.506;8.870;2022-11-11T07:51:06;98271.09;;;2.01;100.00
11001;BME280;5553;48.506;8.870;2022-11-11T07:53:38;98266.97;;;2.11;100.00
11001;BME280;5553;48.506;8.870;2022-11-11T07:56:06;98263.91;;;2.19;100.00
11001;BME280;5553;48.506;8.870;2022-11-11T07:58:36;98270.03;;;2.18;100.00
11001;BME280;5553;48.506;8.870;2022-11-11T08:01:05;98280.00;;;2.26;100.00
11001;BME280;5553;48.506;8.870;2022-11-11T08:03:33;98281.50;;;2.43;100.00
11001;BME280;5553;48.506;8.870;2022-11-11T08:06:13;98279.59;;;2.32;100.00
11001;BME280;5553;48.506;8.870;2022-11-11T08:08:45;98284.13;;;2.43;100.00
11001;BME280;5553;48.506;8.870;2022-11-11T08:11:14;98281.16;;;2.89;100.00
11001;BME280;5553;48.506;8.870;2022-11-11T08:14:03;98284.84;;;2.99;100.00
11001;BME280;5553;48.506;8.870;2022-11-11T08:16:28;98270.75;;;2.89;100.00
11001;BME280;5553;48.506;8.870;2022-11-11T08:18:57;98266.06;;;3.06;100.00
11001;BME280;5553;48.506;8.870;2022-11-11T08:21:31;98266.63;;;3.37;100.00
11001;BME280;5553;48.506;8.870;2022-11-11T08:24:02;98252.13;;;3.46;100.00
11001;BME280;5553;48.506;8.870;2022-11-11T08:26:30;98243.88;;;3.52;100.00
11001;BME280;5553;48.506;8.870;2022-11-11T08:28:59;98233.00;;;3.58;100.00
11001;BME280;5553;48.506;8.870;2022-11-11T08:31:27;98220.91;;;3.57;100.00
11001;BME280;5553;48.506;8.870;2022-11-11T08:33:56;98222.19;;;4.01;100.00
11001;BME280;5553;48.506;8.870;2022-11-11T08:36:24;98218.81;;;4.12;100.00
11001;BME280;5553;48.506;8.870;2022-11-11T08:38:53;98203.03;;;4.37;100.00
11001;BME280;5553;48.506;8.870;2022-11-11T08:41:24;98200.69;;;4.81;100.00
11001;BME280;5553;48.506;8.870;2022-11-11T08:43:53;98197.66;;;4.98;100.00
11001;BME280;5553;48.506;8.870;2022-11-11T08:46:23;98177.63;;;5.32;100.00
11001;BME280;5553;48.506;8.870;2022-11-11T08:48:52;98173.00;;;5.47;100.00
11001;BME280;5553;48.506;8.870;2022-11-11T08:51:20;98157.25;;;5.69;100.00
11001;BME280;5553;48.506;8.870;2022-11-11T08:53:49;98148.31;;;5.94;100.00
11001;BME280;5553;48.506;8.870;2022-11-11T08:56:17;98148.78;;;5.88;100.00
11001;BME280;5553;48.506;8.870;2022-11-11T08:58:48;98135.53;;;6.12;100.00
11001;BME280;5553;48.506;8.870;2022-11-11T09:01:16;98139.09;;;6.23;100.00
11001;BME280;5553;48.506;8.870;2022-11-11T09:03:45;98133.66;;;6.03;100.00
11001;BME280;5553;48.506;8.870;2022-11-11T09:06:13;98127.25;;;5.96;100.00
11001;BME280;5553;48.506;8.870;2022-11-11T09:08:42;98128.66;;;5.89;100.00
11001;BME280;5553;48.506;8.870;2022-11-11T09:11:11;98121.63;;;6.01;100.00
11001;BME280;5553;48.506;8.870;2022-11-11T09:13:39;98124.03;;;6.25;100.00
11001;BME280;5553;48.506;8.870;2022-11-11T09:16:10;98130.66;;;6.40;100.00
11001;BME280;5553;48.506;8.870;2022-11-11T09:18:39;98122.59;;;6.32;100.00
11001;BME280;5553;48.506;8.870;2022-11-11T09:21:07;98124.16;;;6.55;100.00
11001;BME280;5553;48.506;8.870;2022-11-11T09:23:36;98122.31;;;6.46;100.00
11001;BME280;5553;48.506;8.870;2022-11-11T09:26:04;98125.56;;;6.59;100.00
11001;BME280;5553;48.506;8.870;2022-11-11T09:28:32;98129.84;;;6.81;100.00
11001;BME280;5553;48.506;8.870;2022-11-11T09:31:01;98116.66;;;6.93;100.00
11001;BME280;5553;48.506;8.870;2022-11-11T09:33:33;98114.75;;;6.74;100.00
11001;BME280;5553;48.506;8.870;2022-11-11T09:36:01;98117.38;;;7.25;100.00
11001;BME280;5553;48.506;8.870;2022-11-11T09:38:30;98119.06;;;7.67;100.00
11001;BME280;5553;48.506;8.870;2022-11-11T09:41:09;98105.81;;;7.78;100.00
11001;BME280;5553;48.506;8.870;2022-11-11T09:43:45;98098.72;;;8.38;100.00
11001;BME280;5553;48.506;8.870;2022-11-11T09:46:26;98080.75;;;8.90;100.00
11001;BME280;5553;48.506;8.870;2022-11-11T09:51:57;98052.69;;;9.09;100.00
11001;BME280;5553;48.506;8.870;2022-11-11T09:54:32;98056.16;;;10.28;100.00
11001;BME280;5553;48.506;8.870;2022-11-11T09:57:05;98038.22;;;10.75;100.00
11001;BME280;5553;48.506;8.870;2022-11-11T09:59:42;98021.84;;;9.74;100.00
11001;BME280;5553;48.506;8.870;2022-11-11T10:02:21;98020.31;;;10.61;100.00
11001;BME280;5553;48.506;8.870;2022-11-11T10:05:03;98026.59;;;10.42;100.00
11001;BME280;5553;48.506;8.870;2022-11-11T10:07:37;98008.84;;;11.04;100.00
11001;BME280;5553;48.506;8.870;2022-11-11T10:10:19;98008.56;;;11.82;100.00
11001;BME280;5553;48.506;8.870;2022-11-11T10:12:53;97997.44;;;11.46;100.00
11001;BME280;5553;48.506;8.870;2022-11-11T10:15:22;98004.59;;;11.78;100.00
11001;BME280;5553;48.506;8.870;2022-11-11T10:18:10;97986.66;;;12.39;100.00
11001;BME280;5553;48.506;8.870;2022-11-11T10:20:47;97998.72;;;12.33;100.00
11001;BME280;5553;48.506;8.870;2022-11-11T10:23:21;98011.13;;;12.49;100.00
11001;BME280;5553;48.506;8.870;2022-11-11T10:25:53;97941.19;;;13.85;91.42
11001;BME280;5553;48.506;8.870;2022-11-11T10:28:25;97977.22;;;12.37;97.54
11001;BME280;5553;48.506;8.870;2022-11-11T10:30:55;97989.47;;;12.21;100.00
11001;BME280;5553;48.506;8.870;2022-11-11T10:33:27;97999.72;;;12.08;100.00
11001;BME280;5553;48.506;8.870;2022-11-11T10:36:03;97990.03;;;12.80;100.00
11001;BME280;5553;48.506;8.870;2022-11-11T10:38:35;97978.34;;;12.59;99.77
11001;BME280;5553;48.506;8.870;2022-11-11T10:41:13;97987.13;;;12.10;100.00
11001;BME280;5553;48.506;8.870;2022-11-11T10:43:44;97991.44;;;12.19;100.00
11001;BME280;5553;48.506;8.870;2022-11-11T10:46:16;97999.03;;;12.47;100.00
11001;BME280;5553;48.506;8.870;2022-11-11T10:48:51;97986.16;;;12.19;100.00
11001;BME280;5553;48.506;8.870;2022-11-11T10:51:24;98007.44;;;11.77;100.00
11001;BME280;5553;48.506;8.870;2022-11-11T10:54:03;98009.47;;;12.56;100.00
11001;BME280;5553;48.506;8.870;2022-11-11T10:56:35;97997.38;;;13.18;100.00
11001;BME280;5553;48.506;8.870;2022-11-11T10:59:13;97978.63;;;11.66;100.00
11001;BME280;5553;48.506;8.870;2022-11-11T11:01:50;97980.31;;;13.28;98.97
11001;BME280;5553;48.506;8.870;2022-11-11T11:04:25;97977.31;;;13.23;98.43
11001;BME280;5553;48.506;8.870;2022-11-11T11:06:59;97971.75;;;13.10;98.23
11001;BME280;5553;48.506;8.870;2022-11-11T11:09:36;97967.06;;;13.28;96.45
11001;BME280;5553;48.506;8.870;2022-11-11T11:12:12;97974.53;;;13.17;97.21
11001;BME280;5553;48.506;8.870;2022-11-11T11:14:43;97976.13;;;13.65;97.57
11001;BME280;5553;48.506;8.870;2022-11-11T11:17:14;97968.66;;;12.90;97.94
11001;BME280;5553;48.506;8.870;2022-11-11T11:19:44;97978.66;;;13.59;98.51
11001;BME280;5553;48.506;8.870;2022-11-11T11:22:47;97965.19;;;14.52;93.64
11001;BME280;5553;48.506;8.870;2022-11-11T11:25:18;97944.81;;;14.30;89.97
11001;BME280;5553;48.506;8.870;2022-11-11T11:27:49;97936.84;;;13.92;89.50
11001;BME280;5553;48.506;8.870;2022-11-11T11:30:20;97938.44;;;13.78;89.45
11001;BME280;5553;48.506;8.870;2022-11-11T11:32:56;97946.19;;;13.80;90.71
11001;BME280;5553;48.506;8.870;2022-11-11T11:35:33;97948.81;;;15.59;87.55
11001;BME280;5553;48.506;8.870;2022-11-11T11:38:05;97925.47;;;16.25;82.90
11001;BME280;5553;48.506;8.870;2022-11-11T11:40:48;97918.53;;;15.60;81.91
11001;BME280;5553;48.506;8.870;2022-11-11T11:43:31;97936.50;;;16.50;82.33
11001;BME280;5553;48.506;8.870;2022-11-11T11:46:02;97922.69;;;15.48;82.31
11001;BME280;5553;48.506;8.870;2022-11-11T11:48:42;97905.88;;;16.33;80.18
11001;BME280;5553;48.506;8.870;2022-11-11T11:51:24;97912.13;;;15.18;81.67
11001;BME280;5553;48.506;8.870;2022-11-11T11:54:09;97892.56;;;13.69;82.30
11001;BME280;5553;48.506;8.870;2022-11-11T11:56:41;97904.03;;;14.60;81.50
11001;BME280;5553;48.506;8.870;2022-11-11T11:59:14;97920.69;;;17.12;79.14
11001;BME280;5553;48.506;8.870;2022-11-11T12:01:51;97913.38;;;16.79;78.82
11001;BME280;5553;48.506;8.870;2022-11-11T12:04:42;97906.47;;;16.28;78.24
11001;BME280;5553;48.506;8.870;2022-11-11T12:07:25;97917.31;;;16.90;78.03
11001;BME280;5553;48.506;8.870;2022-11-11T12:10:04;97911.66;;;15.87;79.26
11001;BME280;5553;48.506;8.870;2022-11-11T12:12:41;97919.09;;;17.24;77.91
11001;BME280;5553;48.506;8.870;2022-11-11T12:15:23;97899.19;;;16.16;77.95
11001;BME280;5553;48.506;8.870;2022-11-11T12:20:52;97926.53;;;16.59;80.62
11001;BME280;5553;48.506;8.870;2022-11-11T12:23:37;97947.88;;;16.09;83.73
11001;BME280;5553;48.506;8.870;2022-11-11T12:26:17;97923.06;;;16.93;80.02
11001;BME280;5553;48.506;8.870;2022-11-11T12:28:57;97907.59;;;14.15;84.25
11001;BME280;5553;48.506;8.870;2022-11-11T12:31:52;97927.28;;;13.83;86.35
11001;BME280;5553;48.506;8.870;2022-11-11T12:34:47;97964.09;;;15.21;89.46
11001;BME280;5553;48.506;8.870;2022-11-11T12:37:25;97930.31;;;16.43;83.78
11001;BME280;5553;48.506;8.870;2022-11-11T12:40:14;97921.88;;;14.66;85.22
11001;BME280;5553;48.506;8.870;2022-11-11T12:42:59;97932.84;;;17.82;80.46
11001;BME280;5553;48.506;8.870;2022-11-11T12:45:35;97889.13;;;16.39;77.65
11001;BME280;5553;48.506;8.870;2022-11-11T12:48:15;97898.22;;;14.42;81.44
11001;BME280;5553;48.506;8.870;2022-11-11T12:50:52;97908.19;;;17.93;76.17
11001;BME280;5553;48.506;8.870;2022-11-11T12:53:29;97883.03;;;16.17;76.96
11001;BME280;5553;48.506;8.870;2022-11-11T12:56:18;97899.53;;;17.03;78.09
11001;BME280;5553;48.506;8.870;2022-11-11T12:58:55;97922.28;;;16.37;81.46
11001;BME280;5553;48.506;8.870;2022-11-11T13:01:42;97868.09;;;14.94;78.41
11001;BME280;5553;48.506;8.870;2022-11-11T13:04:26;97923.91;;;16.66;81.87
11001;BME280;5553;48.506;8.870;2022-11-11T13:07:11;97901.38;;;14.60;83.03
11001;BME280;5553;48.506;8.870;2022-11-11T13:10:02;97934.19;;;16.13;83.04
11001;BME280;5553;48.506;8.870;2022-11-11T13:12:40;97905.19;;;17.42;77.49
11001;BME280;5553;48.506;8.870;2022-11-11T13:15:17;97865.47;;;16.92;74.78
11001;BME280;5553;48.506;8.870;2022-11-11T13:17:49;97890.13;;;16.73;76.88
11001;BME280;5553;48.506;8.870;2022-11-11T13:20:26;97864.84;;;15.13;77.88
11001;BME280;5553;48.506;8.870;2022-11-11T13:23:02;97932.34;;;14.45;86.27
11001;BME280;5553;48.506;8.870;2022-11-11T13:25:37;97925.28;;;13.62;88.20
11001;BME280;5553;48.506;8.870;2022-11-11T13:28:12;97924.25;;;14.76;85.23
11001;BME280;5553;48.506;8.870;2022-11-11T13:30:56;97911.38;;;16.03;81.50
11001;BME280;5553;48.506;8.870;2022-11-11T13:33:36;97939.91;;;15.15;86.17
11001;BME280;5553;48.506;8.870;2022-11-11T13:36:08;97929.31;;;15.73;83.56
11001;BME280;5553;48.506;8.870;2022-11-11T13:38:44;97898.84;;;15.18;81.02
11001;BME280;5553;48.506;8.870;2022-11-11T13:41:20;97902.63;;;14.79;81.84
11001;BME280;5553;48.506;8.870;2022-11-11T13:43:51;97927.78;;;14.39;86.44
11001;BME280;5553;48.506;8.870;2022-11-11T13:46:40;97935.16;;;14.14;88.14
11001;BME280;5553;48.506;8.870;2022-11-11T13:49:21;97948.78;;;15.74;86.50